Time;durP1;ratioP1;P1;durP2;ratioP2;P2;SDS_P1;SDS_P2;PMS_P1;PMS_P2;Temp;Humidity;BMP_temperature;BMP_pressure;BME280_temperature;BME280_humidity;BME280_pressure;Samples;Min_cycle;Max_cycle;Signal;HPM_P1;HPM_P2
2022/11/28 00:01:32;;;;;;;29.27;13.52;;;;;;;0.66;100.00;93767.13;4954000;28;20057;-72
2022/11/28 00:03:59;;;;;;;27.87;12.63;;;;;;;0.73;100.00;93766.50;4970696;28;20477;-72
2022/11/28 00:06:26;;;;;;;31.65;12.60;;;;;;;0.71;100.00;93766.84;4972097;28;20045;-72
2022/11/28 00:08:54;;;;;;;29.27;12.73;;;;;;;0.70;100.00;93769.91;4989885;28;20231;-72
2022/11/28 00:11:20;;;;;;;30.77;12.18;;;;;;;0.73;100.00;93771.91;4990398;28;20046;-72
2022/11/28 00:13:47;;;;;;;28.38;12.93;;;;;;;0.68;100.00;93759.44;4965951;28;20050;-72
2022/11/28 00:16:20;;;;;;;28.87;12.80;;;;;;;0.71;100.00;93761.44;4970889;28;20113;-72
2022/11/28 00:18:48;;;;;;;26.52;11.60;;;;;;;0.74;100.00;93762.66;4970704;28;20051;-72
2022/11/28 00:21:16;;;;;;;26.88;12.00;;;;;;;0.80;100.00;93758.50;4971057;28;20420;-73
2022/11/28 00:23:44;;;;;;;26.88;11.57;;;;;;;0.92;100.00;93752.94;4962610;28;20068;-72
2022/11/28 00:26:18;;;;;;;28.52;11.63;;;;;;;0.88;100.00;93751.34;4990125;28;20046;-72
2022/11/28 00:28:45;;;;;;;25.40;11.50;;;;;;;0.91;100.00;93751.41;4980258;28;20435;-72
2022/11/28 00:31:21;;;;;;;25.08;10.82;;;;;;;0.99;100.00;93745.00;4970617;28;20047;-72
2022/11/28 00:33:49;;;;;;;23.23;11.10;;;;;;;1.04;100.00;93743.13;4970723;28;20107;-72
2022/11/28 00:36:16;;;;;;;24.85;10.90;;;;;;;1.11;100.00;93741.34;4973494;28;20655;-72
2022/11/28 00:38:43;;;;;;;21.65;10.80;;;;;;;1.13;100.00;93730.94;4978110;28;20055;-72
2022/11/28 00:41:16;;;;;;;25.70;11.32;;;;;;;1.07;100.00;93726.97;4985133;28;20046;-73
2022/11/28 00:43:44;;;;;;;23.33;10.35;;;;;;;1.15;100.00;93719.78;4971760;28;20053;-72
2022/11/28 00:46:12;;;;;;;23.92;10.23;;;;;;;1.18;100.00;93713.66;4984992;28;20047;-72
2022/11/28 00:48:40;;;;;;;20.73;9.68;;;;;;;1.19;100.00;93710.59;4970317;28;20055;-72
2022/11/28 00:51:08;;;;;;;21.60;10.30;;;;;;;1.09;100.00;93705.78;4970580;28;20046;-72
2022/11/28 00:53:35;;;;;;;21.90;8.97;;;;;;;1.13;100.00;93711.25;4986457;28;20054;-71
2022/11/28 00:56:06;;;;;;;19.05;8.65;;;;;;;1.21;100.00;93715.63;4979303;28;20052;-72
2022/11/28 00:58:33;;;;;;;18.02;8.77;;;;;;;1.34;100.00;93722.41;4988572;28;20038;-72
2022/11/28 01:01:29;;;;;;;18.20;8.23;;;;;;;1.41;100.00;93719.06;4975903;28;20917;-71
2022/11/28 01:03:59;;;;;;;17.95;8.70;;;;;;;1.46;100.00;93724.13;4971630;28;20065;-72
2022/11/28 01:06:31;;;;;;;20.20;9.90;;;;;;;1.24;100.00;93712.19;4992313;28;20050;-72
2022/11/28 01:09:01;;;;;;;24.58;11.07;;;;;;;1.08;100.00;93719.66;4987639;28;20081;-72
2022/11/28 01:11:29;;;;;;;22.10;11.13;;;;;;;1.09;100.00;93724.69;4989541;28;20057;-72
2022/11/28 01:13:57;;;;;;;25.88;11.70;;;;;;;1.09;100.00;93713.13;4976619;28;20043;-72
2022/11/28 01:16:24;;;;;;;22.90;10.52;;;;;;;1.05;100.00;93715.75;4975724;28;20057;-72
2022/11/28 01:18:52;;;;;;;21.83;11.00;;;;;;;1.10;100.00;93709.25;4976742;28;20047;-73
2022/11/28 01:21:19;;;;;;;25.02;10.93;;;;;;;1.18;100.00;93711.72;4959698;28;20400;-72
2022/11/28 01:23:46;;;;;;;24.27;11.38;;;;;;;1.16;100.00;93710.53;4978952;28;20046;-72
2022/11/28 01:26:22;;;;;;;23.85;11.07;;;;;;;1.19;100.00;93705.19;4978972;28;20120;-72
2022/11/28 01:28:50;;;;;;;23.33;11.27;;;;;;;1.23;100.00;93699.03;4978143;28;20162;-72
2022/11/28 01:31:20;;;;;;;23.60;11.30;;;;;;;1.27;100.00;93697.97;4978106;28;20510;-72
2022/11/28 01:33:47;;;;;;;25.05;11.50;;;;;;;1.14;100.00;93691.97;4976565;28;20073;-72
2022/11/28 01:36:13;;;;;;;24.48;12.50;;;;;;;1.10;100.00;93684.94;4968504;28;20059;-72
2022/11/28 01:38:40;;;;;;;26.25;12.52;;;;;;;0.99;100.00;93698.28;4977582;28;20043;-72
2022/11/28 01:41:08;;;;;;;24.75;11.88;;;;;;;0.89;100.00;93691.53;4989456;28;20054;-72
2022/11/28 01:43:36;;;;;;;28.50;12.97;;;;;;;0.85;100.00;93693.41;4995983;28;20054;-71
2022/11/28 01:46:04;;;;;;;26.33;11.90;;;;;;;0.89;100.00;93696.94;4992023;28;20050;-72
2022/11/28 01:48:39;;;;;;;26.52;12.20;;;;;;;0.91;100.00;93691.97;4984910;28;20034;-72
2022/11/28 01:51:08;;;;;;;29.20;12.48;;;;;;;0.84;100.00;93699.16;4981785;28;20096;-72
2022/11/28 01:53:41;;;;;;;25.15;11.27;;;;;;;0.78;100.00;93710.25;4985009;28;20043;-72
2022/11/28 01:56:13;;;;;;;27.07;11.80;;;;;;;0.84;100.00;93699.16;4996158;28;20077;-72
2022/11/28 01:58:43;;;;;;;23.38;11.18;;;;;;;0.86;100.00;93694.19;4986849;28;20053;-72
2022/11/28 02:01:10;;;;;;;24.05;10.70;;;;;;;0.84;100.00;93683.72;4976540;28;20415;-72
2022/11/28 02:03:43;;;;;;;28.83;12.85;;;;;;;0.83;100.00;93684.88;4976412;28;20039;-72
2022/11/28 02:06:13;;;;;;;25.48;11.05;;;;;;;0.98;100.00;93662.34;4975413;28;20046;-72
2022/11/28 02:08:40;;;;;;;24.03;10.97;;;;;;;1.05;100.00;93667.13;4973245;28;20074;-72
2022/11/28 02:11:13;;;;;;;23.33;10.98;;;;;;;1.03;100.00;93664.00;4985967;28;20506;-72
2022/11/28 02:13:57;;;;;;;25.70;11.40;;;;;;;0.90;100.00;93662.59;4975440;28;20512;-72
2022/11/28 02:16:42;;;;;;;27.48;12.38;;;;;;;0.82;100.00;93659.00;4973419;28;20077;-72
2022/11/28 02:19:25;;;;;;;28.52;11.82;;;;;;;0.79;100.00;93663.19;4972622;28;20640;-72
2022/11/28 02:22:10;;;;;;;24.87;11.13;;;;;;;0.85;100.00;93661.00;4975725;28;20061;-72
2022/11/28 02:24:53;;;;;;;24.35;11.13;;;;;;;0.81;100.00;93662.06;4984232;28;20532;-72
2022/11/28 02:27:47;;;;;;;28.83;11.57;;;;;;;0.77;100.00;93659.31;4985934;28;20656;-72
2022/11/28 02:30:22;;;;;;;25.83;11.07;;;;;;;0.83;100.00;93652.47;4970689;28;21004;-72
2022/11/28 02:32:54;;;;;;;22.00;10.63;;;;;;;0.94;100.00;93650.69;4972915;28;20042;-72
2022/11/28 02:35:34;;;;;;;23.57;10.60;;;;;;;1.03;100.00;93641.56;4969780;28;20112;-72
2022/11/28 02:38:11;;;;;;;21.65;10.48;;;;;;;1.13;100.00;93639.06;4974354;28;20154;-72
2022/11/28 02:40:56;;;;;;;22.20;9.60;;;;;;;1.13;100.00;93635.59;4991637;28;20034;-72
2022/11/28 02:43:51;;;;;;;20.88;9.70;;;;;;;1.14;100.00;93646.00;4979475;28;20050;-72
2022/11/28 02:46:29;;;;;;;22.55;10.55;;;;;;;1.19;100.00;93647.66;4977238;28;20120;-72
2022/11/28 02:49:05;;;;;;;19.93;9.83;;;;;;;1.24;100.00;93635.75;4972665;28;20038;-72
2022/11/28 02:51:47;;;;;;;20.17;9.30;;;;;;;1.29;100.00;93641.63;4972845;28;20054;-72
2022/11/28 02:54:17;;;;;;;21.08;9.73;;;;;;;1.24;100.00;93635.75;4991330;28;20403;-72
2022/11/28 02:56:51;;;;;;;20.73;9.10;;;;;;;1.28;100.00;93623.81;4989161;28;20137;-72
2022/11/28 02:59:36;;;;;;;19.05;9.20;;;;;;;1.36;100.00;93614.69;4972454;28;20054;-72
2022/11/28 03:02:29;;;;;;;21.60;8.87;;;;;;;1.42;100.00;93619.78;4979198;28;21755;-72
2022/11/28 03:05:21;;;;;;;16.70;8.02;;;;;;;1.42;100.00;93615.16;4972213;28;20047;-72
2022/11/28 03:08:04;;;;;;;18.58;8.50;;;;;;;1.53;99.85;93618.78;4972073;28;20043;-72
2022/11/28 03:10:53;;;;;;;18.90;8.95;;;;;;;1.50;100.00;93622.22;4988151;28;20057;-72
2022/11/28 03:13:56;;;;;;;16.80;8.27;;;;;;;1.53;99.54;93618.00;4991547;28;20057;-72
2022/11/28 03:16:29;;;;;;;18.77;8.93;;;;;;;1.41;100.00;93605.50;4956438;28;20644;-72
2022/11/28 03:18:58;;;;;;;20.92;9.20;;;;;;;1.46;100.00;93594.34;4979505;28;20049;-72
2022/11/28 03:21:39;;;;;;;21.05;9.65;;;;;;;1.27;100.00;93594.44;4972066;28;20047;-72
2022/11/28 03:24:16;;;;;;;18.23;9.30;;;;;;;1.37;100.00;93601.97;4986498;28;20486;-72
2022/11/28 03:26:55;;;;;;;17.85;8.07;;;;;;;1.51;99.64;93598.66;4974589;28;20480;-72
2022/11/28 03:29:33;;;;;;;16.83;7.97;;;;;;;1.58;98.24;93599.53;4971993;28;20053;-72
2022/11/28 03:32:05;;;;;;;20.40;9.20;;;;;;;1.40;100.00;93585.75;4990728;28;20293;-72
2022/11/28 03:34:38;;;;;;;19.77;9.57;;;;;;;1.33;100.00;93599.19;4987582;28;20057;-72
2022/11/28 03:37:25;;;;;;;21.25;9.70;;;;;;;1.32;100.00;93605.75;4972243;28;20573;-68
2022/11/28 03:40:01;;;;;;;17.80;7.85;;;;;;;1.49;100.00;93614.47;4987916;28;20046;-71
2022/11/28 03:42:34;;;;;;;18.83;8.83;;;;;;;1.51;99.62;93620.28;4982543;28;20108;-71
2022/11/28 03:45:54;;;;;;;22.77;8.98;;;;;;;1.56;99.34;93620.75;4979383;28;20405;-71
2022/11/28 03:48:30;;;;;;;21.33;9.35;;;;;;;1.52;100.00;93613.75;4973379;28;20042;-71
2022/11/28 03:51:15;;;;;;;24.77;10.25;;;;;;;1.54;100.00;93617.63;4971531;28;20035;-70
2022/11/28 03:54:06;;;;;;;23.75;11.02;;;;;;;1.19;100.00;93612.50;4975578;28;20056;-70
2022/11/28 03:56:58;;;;;;;24.47;10.90;;;;;;;1.08;100.00;93606.91;4979432;28;20143;-71
2022/11/28 03:59:32;;;;;;;23.42;11.02;;;;;;;1.24;100.00;93606.78;4974545;28;20668;-71
2022/11/28 04:02:17;;;;;;;26.35;11.43;;;;;;;1.07;100.00;93605.38;5001677;28;20944;-70
2022/11/28 04:04:58;;;;;;;26.48;11.20;;;;;;;0.89;100.00;93602.41;4981219;28;20092;-70
2022/11/28 04:07:43;;;;;;;30.95;12.15;;;;;;;0.91;100.00;93597.41;4986203;28;20046;-71
2022/11/28 04:10:27;;;;;;;25.10;11.57;;;;;;;0.96;100.00;93599.00;4991588;28;20116;-70
2022/11/28 04:13:12;;;;;;;26.02;12.02;;;;;;;1.07;100.00;93597.28;4970990;28;20463;-70
2022/11/28 04:16:00;;;;;;;25.08;11.23;;;;;;;1.14;100.00;93600.06;4970774;28;20046;-70
2022/11/28 04:18:46;;;;;;;22.63;10.80;;;;;;;1.13;100.00;93589.63;4971253;28;20158;-71
2022/11/28 04:21:17;;;;;;;24.60;10.90;;;;;;;1.28;100.00;93591.38;4970081;28;20051;-70
2022/11/28 04:23:47;;;;;;;23.53;11.23;;;;;;;1.34;100.00;93589.16;4971174;28;20050;-71
2022/11/28 04:26:21;;;;;;;26.33;12.07;;;;;;;1.37;100.00;93591.16;4984318;28;20062;-70
2022/11/28 04:28:51;;;;;;;29.58;13.18;;;;;;;1.40;100.00;93596.59;4972166;28;20050;-71
2022/11/28 04:31:21;;;;;;;26.63;11.30;;;;;;;1.48;100.00;93602.09;4970337;28;20038;-70
2022/11/28 04:33:53;;;;;;;24.42;11.38;;;;;;;1.46;100.00;93599.75;4970768;28;20046;-70
2022/11/28 04:36:22;;;;;;;24.77;11.57;;;;;;;1.39;100.00;93591.56;4962595;28;20050;-71
2022/11/28 04:38:55;;;;;;;26.10;11.68;;;;;;;1.35;100.00;93590.72;4978469;28;20062;-71
2022/11/28 04:41:37;;;;;;;25.60;11.80;;;;;;;1.30;100.00;93599.13;4983862;28;20041;-71
2022/11/28 04:44:11;;;;;;;24.45;11.68;;;;;;;1.16;100.00;93595.06;4993340;28;20525;-71
2022/11/28 04:46:47;;;;;;;27.73;12.40;;;;;;;1.13;100.00;93598.53;4970591;28;20051;-70
2022/11/28 04:49:14;;;;;;;28.70;13.27;;;;;;;1.13;100.00;93593.13;4970447;28;20050;-71
2022/11/28 04:51:40;;;;;;;37.17;18.90;;;;;;;1.14;100.00;93591.19;4971482;28;20045;-71
2022/11/28 04:54:36;;;;;;;35.78;15.95;;;;;;;1.22;100.00;93598.25;4985845;28;20055;-71
2022/11/28 04:57:16;;;;;;;32.70;15.48;;;;;;;1.16;100.00;93595.06;4981471;28;21864;-71
2022/11/28 04:59:44;;;;;;;28.15;13.65;;;;;;;1.29;100.00;93592.97;4981823;28;20506;-71
2022/11/28 05:02:13;;;;;;;30.50;14.20;;;;;;;1.33;100.00;93596.50;4960082;28;20403;-71
2022/11/28 05:04:42;;;;;;;32.00;14.55;;;;;;;1.29;100.00;93598.38;4970334;28;20043;-70
2022/11/28 05:07:10;;;;;;;32.30;14.32;;;;;;;1.30;100.00;93604.53;4970633;28;20051;-70
2022/11/28 05:09:37;;;;;;;30.83;13.98;;;;;;;1.33;100.00;93596.50;4978879;28;20403;-69
2022/11/28 05:12:05;;;;;;;29.75;13.40;;;;;;;1.30;100.00;93602.63;4977782;28;20057;-70
2022/11/28 05:14:31;;;;;;;30.73;13.73;;;;;;;1.20;100.00;93597.84;4971582;28;20042;-71
2022/11/28 05:16:58;;;;;;;30.00;13.48;;;;;;;1.24;100.00;93595.97;4971230;28;20153;-70
2022/11/28 05:19:25;;;;;;;32.13;14.18;;;;;;;1.29;100.00;93601.06;4970224;28;20046;-70
2022/11/28 05:21:52;;;;;;;30.42;13.98;;;;;;;1.18;100.00;93603.59;4970398;28;20053;-70
2022/11/28 05:24:19;;;;;;;31.77;15.85;;;;;;;1.25;100.00;93599.44;4970461;28;20049;-70
2022/11/28 05:26:48;;;;;;;30.67;14.23;;;;;;;1.31;100.00;93597.97;4986264;28;20050;-71
2022/11/28 05:29:15;;;;;;;31.05;13.70;;;;;;;1.34;100.00;93600.75;4970162;28;20050;-71
2022/11/28 05:31:41;;;;;;;31.38;14.65;;;;;;;1.29;100.00;93597.56;4952820;28;20039;-70
2022/11/28 05:34:08;;;;;;;32.65;14.48;;;;;;;1.08;100.00;93579.13;4969179;28;20042;-70
2022/11/28 05:36:35;;;;;;;29.88;14.32;;;;;;;0.82;100.00;93585.28;4968770;28;20046;-70
2022/11/28 05:39:02;;;;;;;30.23;14.23;;;;;;;0.85;100.00;93584.56;4980072;28;20042;-70
2022/11/28 05:41:30;;;;;;;30.00;14.52;;;;;;;0.87;100.00;93582.28;4989777;28;20395;-70
2022/11/28 05:43:59;;;;;;;31.33;14.88;;;;;;;0.70;100.00;93578.16;4992864;28;20411;-69
2022/11/28 05:46:26;;;;;;;30.95;13.80;;;;;;;0.79;100.00;93581.41;4978081;28;20092;-70
2022/11/28 05:48:53;;;;;;;32.63;15.23;;;;;;;0.56;100.00;93574.09;4982149;28;20414;-70
2022/11/28 05:51:20;;;;;;;34.40;14.13;;;;;;;0.66;100.00;93585.41;4973614;28;20051;-70
2022/11/28 05:53:47;;;;;;;33.10;14.88;;;;;;;0.83;100.00;93573.34;4989551;28;20062;-70
2022/11/28 05:56:17;;;;;;;33.15;14.98;;;;;;;0.77;100.00;93575.56;4979405;28;20049;-70
2022/11/28 05:58:44;;;;;;;31.73;14.13;;;;;;;0.91;100.00;93585.81;4982883;28;20069;-70
2022/11/28 06:01:13;;;;;;;33.30;14.73;;;;;;;1.00;100.00;93584.41;4973678;28;20050;-70
2022/11/28 06:03:41;;;;;;;32.80;14.67;;;;;;;0.99;100.00;93585.56;4973068;28;20046;-70
2022/11/28 06:06:11;;;;;;;28.45;12.63;;;;;;;0.90;100.00;93587.72;4973890;28;20047;-70
2022/11/28 06:08:37;;;;;;;30.60;14.13;;;;;;;0.82;100.00;93583.34;4981511;28;20039;-69
2022/11/28 06:11:05;;;;;;;32.10;14.25;;;;;;;0.81;100.00;93575.63;4989325;28;20097;-69
2022/11/28 06:13:31;;;;;;;31.70;14.13;;;;;;;0.73;100.00;93583.63;4973289;28;20049;-70
2022/11/28 06:15:58;;;;;;;32.50;14.60;;;;;;;0.69;100.00;93566.56;4973171;28;20050;-70
2022/11/28 06:18:25;;;;;;;34.55;14.88;;;;;;;0.81;100.00;93567.53;4980082;28;20173;-69
2022/11/28 06:20:52;;;;;;;33.00;14.70;;;;;;;0.76;100.00;93577.47;4981630;28;20582;-69
2022/11/28 06:23:19;;;;;;;32.25;14.80;;;;;;;0.85;100.00;93577.25;4979468;28;20050;-70
2022/11/28 06:25:45;;;;;;;32.50;14.60;;;;;;;0.84;100.00;93578.38;4992467;28;20325;-70
2022/11/28 06:28:12;;;;;;;42.87;20.43;;;;;;;0.69;100.00;93576.59;4979197;28;20053;-69
2022/11/28 06:30:42;;;;;;;33.90;15.45;;;;;;;0.50;100.00;93582.81;4974896;28;20047;-69
2022/11/28 06:33:08;;;;;;;33.40;16.05;;;;;;;0.46;100.00;93579.28;4973095;28;20049;-70
2022/11/28 06:35:35;;;;;;;29.23;13.70;;;;;;;0.53;100.00;93582.91;4972407;28;20451;-69
2022/11/28 06:38:02;;;;;;;29.25;13.27;;;;;;;0.57;100.00;93577.56;4973240;28;20050;-69
2022/11/28 06:40:28;;;;;;;32.77;14.53;;;;;;;0.63;100.00;93578.03;4971637;28;20085;-68
2022/11/28 06:42:55;;;;;;;31.80;13.88;;;;;;;0.72;100.00;93582.03;4975517;28;20048;-69
2022/11/28 06:45:22;;;;;;;31.85;14.70;;;;;;;0.78;100.00;93580.59;4992458;28;20052;-68
2022/11/28 06:47:48;;;;;;;34.97;14.43;;;;;;;0.89;100.00;93578.06;4981862;28;20054;-68
2022/11/28 06:50:15;;;;;;;39.60;15.00;;;;;;;0.96;100.00;93574.69;4973028;28;20628;-68
2022/11/28 06:52:42;;;;;;;36.40;14.83;;;;;;;1.02;100.00;93581.34;4972096;28;20045;-68
2022/11/28 06:55:08;;;;;;;34.55;15.27;;;;;;;1.01;100.00;93587.91;4972956;28;20046;-69
2022/11/28 06:57:36;;;;;;;35.95;15.80;;;;;;;1.08;100.00;93585.31;4988131;28;20392;-68
2022/11/28 07:00:04;;;;;;;36.78;15.13;;;;;;;1.15;100.00;93580.03;4972542;28;20496;-69
2022/11/28 07:02:31;;;;;;;36.28;16.67;;;;;;;0.93;100.00;93583.53;4972782;28;20038;-70
2022/11/28 07:04:58;;;;;;;35.53;15.70;;;;;;;0.94;100.00;93593.19;4968001;28;20053;-70
2022/11/28 07:07:24;;;;;;;34.63;14.65;;;;;;;0.98;100.00;93585.91;4973173;28;20391;-69
2022/11/28 07:09:51;;;;;;;32.25;14.38;;;;;;;0.98;100.00;93588.63;4987774;28;20048;-69
2022/11/28 07:12:18;;;;;;;33.58;14.55;;;;;;;1.06;100.00;93584.88;4977815;28;20046;-70
2022/11/28 07:14:45;;;;;;;32.17;15.05;;;;;;;1.14;100.00;93583.84;4981170;28;20054;-70
2022/11/28 07:17:12;;;;;;;29.57;13.70;;;;;;;1.24;100.00;93590.56;4978876;28;20480;-70
2022/11/28 07:19:38;;;;;;;33.80;14.15;;;;;;;1.32;100.00;93583.34;4971659;28;20043;-69
2022/11/28 07:22:05;;;;;;;31.17;14.07;;;;;;;1.41;100.00;93594.69;4976453;28;20057;-70
2022/11/28 07:24:32;;;;;;;30.70;14.05;;;;;;;1.47;100.00;93597.81;5000566;28;20046;-69
2022/11/28 07:26:58;;;;;;;32.00;15.05;;;;;;;1.54;100.00;93604.13;4975413;28;20049;-70
2022/11/28 07:29:30;;;;;;;31.33;14.38;;;;;;;1.52;100.00;93603.69;4976400;28;20566;-70
2022/11/28 07:31:56;;;;;;;32.65;14.55;;;;;;;1.53;100.00;93601.78;4971976;28;20043;-70
2022/11/28 07:34:23;;;;;;;33.58;15.35;;;;;;;1.57;100.00;93610.72;4971768;28;20043;-70
2022/11/28 07:36:50;;;;;;;32.65;14.55;;;;;;;1.69;100.00;93604.31;4982264;28;20052;-69
2022/11/28 07:39:17;;;;;;;32.42;14.80;;;;;;;1.71;100.00;93602.81;4965183;28;20050;-70
2022/11/28 07:41:44;;;;;;;31.53;13.97;;;;;;;1.71;100.00;93592.00;4979386;28;20077;-70
2022/11/28 07:44:11;;;;;;;30.15;13.68;;;;;;;1.82;100.00;93596.75;4971906;28;20054;-70
2022/11/28 07:46:38;;;;;;;28.85;13.70;;;;;;;1.81;100.00;93598.66;4971246;28;20065;-69
2022/11/28 07:49:05;;;;;;;29.88;13.77;;;;;;;1.94;100.00;93597.28;4955013;28;20043;-70
2022/11/28 07:51:33;;;;;;;30.38;14.00;;;;;;;2.03;100.00;93605.13;4971721;28;20454;-70
2022/11/28 07:54:00;;;;;;;30.70;13.67;;;;;;;2.02;100.00;93591.97;4971799;28;20687;-70
2022/11/28 07:56:30;;;;;;;29.70;14.43;;;;;;;1.95;100.00;93593.44;4978792;28;20048;-70
2022/11/28 07:59:17;;;;;;;29.90;14.68;;;;;;;1.73;100.00;93589.69;4970436;28;20446;-71
2022/11/28 08:01:44;;;;;;;31.10;13.90;;;;;;;1.68;100.00;93594.63;4970671;28;20357;-70
2022/11/28 08:04:10;;;;;;;30.65;14.07;;;;;;;1.67;100.00;93590.38;4969873;28;20051;-70
2022/11/28 08:06:40;;;;;;;31.63;16.27;;;;;;;1.75;100.00;93592.81;4977641;28;20053;-69
2022/11/28 08:09:07;;;;;;;34.78;17.13;;;;;;;1.75;100.00;93590.09;4980350;28;20433;-70
2022/11/28 08:11:34;;;;;;;34.42;17.25;;;;;;;1.87;100.00;93594.50;4990380;28;20046;-68
2022/11/28 08:14:01;;;;;;;39.22;18.48;;;;;;;2.04;100.00;93595.09;4982799;28;20042;-70
2022/11/28 08:16:29;;;;;;;32.15;15.38;;;;;;;2.09;100.00;93587.41;4983479;28;20050;-70
2022/11/28 08:18:56;;;;;;;31.57;14.83;;;;;;;2.06;100.00;93574.63;4971193;28;20051;-70
2022/11/28 08:21:26;;;;;;;31.73;15.57;;;;;;;2.17;100.00;93583.66;4971313;28;20050;-70
2022/11/28 08:23:54;;;;;;;31.65;14.90;;;;;;;2.39;100.00;93589.28;4989467;28;20514;-69
2022/11/28 08:26:23;;;;;;;39.65;17.65;;;;;;;1.73;100.00;93589.69;4990900;28;20100;-70
2022/11/28 08:28:56;;;;;;;37.70;17.58;;;;;;;1.87;100.00;93599.13;4970912;28;20051;-69
2022/11/28 08:31:32;;;;;;;39.33;16.70;;;;;;;1.82;100.00;93594.81;4971425;28;20050;-69
2022/11/28 08:34:01;;;;;;;36.50;16.08;;;;;;;1.79;100.00;93595.53;4970858;28;20043;-70
2022/11/28 08:36:28;;;;;;;47.10;22.73;;;;;;;2.06;100.00;93592.78;4953965;28;20510;-69
2022/11/28 08:38:56;;;;;;;39.78;18.90;;;;;;;2.28;100.00;93607.34;4970738;28;20487;-69
2022/11/28 08:41:42;;;;;;;33.63;15.77;;;;;;;2.34;100.00;93600.44;4986163;28;20046;-69
2022/11/28 08:44:09;;;;;;;31.83;15.10;;;;;;;2.56;100.00;93601.44;4971136;28;20049;-70
2022/11/28 08:46:36;;;;;;;31.92;15.82;;;;;;;2.53;100.00;93599.47;4977901;28;20068;-69
2022/11/28 08:49:02;;;;;;;32.00;13.93;;;;;;;2.52;100.00;93604.13;4978767;28;20077;-70
2022/11/28 08:51:30;;;;;;;38.75;16.80;;;;;;;2.40;100.00;93598.97;4970596;28;20046;-70
2022/11/28 08:53:58;;;;;;;33.47;15.35;;;;;;;2.30;100.00;93594.22;4970607;28;20046;-69
2022/11/28 08:56:26;;;;;;;32.90;14.77;;;;;;;2.15;100.00;93587.84;4977636;28;20052;-69
2022/11/28 08:58:53;;;;;;;30.90;15.15;;;;;;;2.08;100.00;93598.63;4979215;28;20514;-69
2022/11/28 09:01:23;;;;;;;31.83;14.73;;;;;;;2.40;100.00;93598.97;4970569;28;20053;-69
2022/11/28 09:03:52;;;;;;;32.13;14.45;;;;;;;2.54;100.00;93604.53;4970398;28;20101;-69
2022/11/28 09:06:19;;;;;;;33.70;16.95;;;;;;;2.52;100.00;93600.63;4968034;28;20057;-69
2022/11/28 09:08:48;;;;;;;29.00;13.83;;;;;;;2.50;100.00;93608.34;4970725;28;20043;-69
2022/11/28 09:11:17;;;;;;;33.53;15.93;;;;;;;2.54;100.00;93607.22;4984330;28;20043;-70
2022/11/28 09:13:44;;;;;;;31.33;14.68;;;;;;;2.80;100.00;93600.91;4989068;28;20038;-69
2022/11/28 09:16:12;;;;;;;30.38;15.13;;;;;;;2.75;100.00;93609.34;4986646;28;20108;-70
2022/11/28 09:18:39;;;;;;;27.33;12.68;;;;;;;2.95;100.00;93606.44;4974190;28;20068;-69
2022/11/28 09:21:10;;;;;;;31.77;16.23;;;;;;;2.87;100.00;93604.81;4974564;28;20043;-69
2022/11/28 09:23:39;;;;;;;32.55;15.75;;;;;;;2.86;100.00;93595.13;4982698;28;20038;-69
2022/11/28 09:26:08;;;;;;;30.17;15.02;;;;;;;3.09;100.00;93601.13;4993893;28;20046;-70
2022/11/28 09:28:35;;;;;;;25.13;12.68;;;;;;;3.25;99.49;93591.97;4976916;28;20051;-69
2022/11/28 09:31:04;;;;;;;28.63;14.00;;;;;;;3.37;98.03;93592.41;4974360;28;20407;-69
2022/11/28 09:33:32;;;;;;;24.37;12.43;;;;;;;3.65;97.53;93598.41;4973154;28;20043;-70
2022/11/28 09:36:03;;;;;;;26.48;12.73;;;;;;;3.79;96.34;93604.69;4956605;28;20053;-69
2022/11/28 09:38:30;;;;;;;27.05;13.13;;;;;;;3.70;97.18;93600.75;4957002;28;20055;-70
2022/11/28 09:40:57;;;;;;;28.10;12.70;;;;;;;3.58;96.73;93593.72;4984911;28;20161;-70
2022/11/28 09:43:34;;;;;;;25.75;13.10;;;;;;;3.66;96.81;93600.72;4986957;28;20469;-70
2022/11/28 09:46:09;;;;;;;27.77;12.93;;;;;;;3.73;96.20;93597.28;4973345;28;20857;-70
2022/11/28 09:48:40;;;;;;;24.98;12.75;;;;;;;3.87;96.28;93599.31;4981361;28;20395;-68
2022/11/28 09:51:32;;;;;;;27.67;13.20;;;;;;;3.70;95.83;93595.31;4993305;28;20468;-70
2022/11/28 09:54:17;;;;;;;25.48;12.80;;;;;;;3.87;95.31;93607.44;4978886;28;20105;-69
2022/11/28 09:56:47;;;;;;;25.67;12.65;;;;;;;4.02;94.95;93594.72;4982307;28;20096;-70
2022/11/28 09:59:19;;;;;;;25.30;12.80;;;;;;;3.99;94.05;93591.59;4978754;28;20377;-70
2022/11/28 10:02:08;;;;;;;30.08;13.18;;;;;;;3.97;94.69;93591.19;4987790;28;20039;-69
2022/11/28 10:04:59;;;;;;;29.65;15.23;;;;;;;3.85;96.13;93590.78;4975923;28;20038;-69
2022/11/28 10:07:52;;;;;;;27.40;13.60;;;;;;;3.77;96.50;93585.28;4984328;28;20384;-69
2022/11/28 10:10:48;;;;;;;30.65;13.40;;;;;;;3.79;97.54;93587.63;4977835;28;20746;-69
2022/11/28 10:13:24;;;;;;;27.33;13.23;;;;;;;3.96;96.73;93583.44;4978723;28;20407;-69
2022/11/28 10:16:10;;;;;;;24.67;13.38;;;;;;;4.09;96.26;93581.94;4989449;28;20043;-69
2022/11/28 10:19:00;;;;;;;28.85;13.43;;;;;;;4.00;95.59;93571.44;4987745;28;20038;-69
2022/11/28 10:21:46;;;;;;;36.95;15.45;;;;;;;4.36;95.04;93573.50;4980360;28;20442;-69
2022/11/28 10:24:21;;;;;;;30.58;14.32;;;;;;;4.42;94.58;93579.34;4978602;28;20109;-69
2022/11/28 10:26:52;;;;;;;31.47;13.57;;;;;;;4.71;94.19;93575.50;4971254;28;20050;-69
2022/11/28 10:29:28;;;;;;;27.85;13.27;;;;;;;4.64;92.97;93569.28;4972785;28;20059;-69
2022/11/28 10:32:00;;;;;;;30.50;15.00;;;;;;;4.77;93.00;93568.53;4972884;28;20047;-69
2022/11/28 10:34:37;;;;;;;27.92;13.85;;;;;;;4.50;94.08;93573.53;4973272;28;20434;-69
2022/11/28 10:37:09;;;;;;;31.08;15.38;;;;;;;4.29;95.77;93568.81;4979913;28;20454;-69
2022/11/28 10:39:41;;;;;;;27.70;14.53;;;;;;;4.31;96.33;93552.91;4972839;28;20046;-68
2022/11/28 10:42:47;;;;;;;32.47;14.30;;;;;;;4.43;95.77;93561.84;4988101;28;20508;-69
2022/11/28 10:45:26;;;;;;;29.90;13.82;;;;;;;4.42;94.60;93560.31;4972250;28;20391;-69
2022/11/28 10:48:15;;;;;;;26.00;14.25;;;;;;;4.45;94.88;93552.19;4972156;28;20058;-68
2022/11/28 10:51:18;;;;;;;27.65;13.90;;;;;;;4.61;94.54;93562.69;4991533;28;20046;-69
2022/11/28 10:54:08;;;;;;;26.70;13.90;;;;;;;4.67;95.32;93571.22;4974120;28;20045;-69
2022/11/28 10:56:56;;;;;;;33.05;16.98;;;;;;;4.73;95.25;93562.31;4955523;28;20043;-68
2022/11/28 10:59:32;;;;;;;26.90;13.40;;;;;;;4.71;95.08;93558.41;4989787;28;20271;-69
2022/11/28 11:02:02;;;;;;;27.73;13.95;;;;;;;4.89;95.03;93558.41;4988632;28;20049;-69
2022/11/28 11:04:32;;;;;;;26.88;14.10;;;;;;;4.92;94.15;93561.16;4987039;28;20047;-69
2022/11/28 11:07:23;;;;;;;25.07;11.87;;;;;;;4.83;93.14;93549.91;4991673;28;20616;-69
2022/11/28 11:10:39;;;;;;;23.83;12.15;;;;;;;4.91;93.51;93554.16;4991497;28;20054;-69
2022/11/28 11:13:24;;;;;;;29.15;13.68;;;;;;;4.98;92.71;93550.66;4963337;28;22117;-70
2022/11/28 11:16:03;;;;;;;26.77;13.55;;;;;;;5.00;92.53;93546.38;4979510;28;20057;-69
2022/11/28 11:18:35;;;;;;;25.55;13.70;;;;;;;5.15;91.84;93533.56;4991447;28;20034;-69
2022/11/28 11:21:24;;;;;;;28.10;14.30;;;;;;;5.40;91.33;93543.63;4990806;28;20696;-69
2022/11/28 11:24:19;;;;;;;25.77;13.23;;;;;;;5.62;90.07;93538.16;4990789;28;20414;-69
2022/11/28 11:26:47;;;;;;;24.17;12.93;;;;;;;5.81;88.19;93537.69;4981665;28;20123;-69
2022/11/28 11:29:28;;;;;;;26.50;12.93;;;;;;;5.55;88.75;93528.84;4991702;28;20043;-69
2022/11/28 11:31:55;;;;;;;25.85;13.43;;;;;;;5.47;89.02;93535.44;4991519;28;20072;-69
2022/11/28 11:34:23;;;;;;;27.33;12.67;;;;;;;5.37;89.72;93533.53;4974271;28;20415;-69
2022/11/28 11:36:50;;;;;;;22.45;12.98;;;;;;;5.28;89.70;93530.44;4989890;28;20046;-68
2022/11/28 11:39:24;;;;;;;24.33;12.05;;;;;;;5.35;88.86;93531.22;4990776;28;20541;-69
2022/11/28 11:42:10;;;;;;;22.55;11.50;;;;;;;5.49;89.04;93530.38;4990772;28;20050;-69
2022/11/28 11:44:37;;;;;;;21.70;11.70;;;;;;;5.56;88.36;93527.66;5005915;28;20042;-68
2022/11/28 11:47:06;;;;;;;23.17;11.73;;;;;;;5.72;88.58;93531.91;4989186;28;20046;-69